Time;durP1;ratioP1;P1;durP2;ratioP2;P2;SDS_P1;SDS_P2;PMS_P1;PMS_P2;Temp;Humidity;BMP_temperature;BMP_pressure;BME280_temperature;BME280_humidity;BME280_pressure;Samples;Min_cycle;Max_cycle;Signal;HPM_P1;HPM_P2
2021/04/23 00:00:11;;;;;;;3.33;1.50;;;7.70;38.80;;;;;;2343247;53;20925;-62
2021/04/23 00:02:40;;;;;;;8.27;1.90;;;7.70;38.90;;;;;;2343367;53;20912;-64
2021/04/23 00:05:08;;;;;;;2.87;1.10;;;7.70;39.00;;;;;;2343454;53;21398;-63
2021/04/23 00:07:34;;;;;;;3.97;1.42;;;7.60;39.00;;;;;;2396480;53;20924;-62
2021/04/23 00:10:01;;;;;;;4.47;1.62;;;7.60;39.10;;;;;;2342310;53;20940;-63
2021/04/23 00:12:27;;;;;;;4.80;1.52;;;7.50;39.10;;;;;;2343588;53;20976;-64
2021/04/23 00:14:56;;;;;;;4.40;1.20;;;7.50;39.20;;;;;;2589882;53;20937;-64
2021/04/23 00:17:22;;;;;;;5.18;1.35;;;7.40;39.30;;;;;;2341893;53;21008;-63
2021/04/23 00:19:49;;;;;;;4.57;1.50;;;7.40;39.30;;;;;;2348041;53;20964;-63
2021/04/23 00:22:15;;;;;;;3.87;1.33;;;7.30;39.40;;;;;;2372137;53;20973;-64
2021/04/23 00:24:41;;;;;;;3.03;1.27;;;7.30;39.50;;;;;;2342221;53;20923;-63
2021/04/23 00:27:08;;;;;;;2.78;1.08;;;7.30;39.50;;;;;;2328844;53;21030;-63
2021/04/23 00:29:35;;;;;;;3.60;1.30;;;7.20;39.60;;;;;;2369101;53;20945;-63
2021/04/23 00:32:02;;;;;;;3.10;1.23;;;7.20;39.80;;;;;;2325253;53;20932;-64
2021/04/23 00:34:29;;;;;;;3.37;1.00;;;7.20;39.80;;;;;;2340809;53;21514;-63
2021/04/23 00:36:55;;;;;;;3.03;1.20;;;7.20;39.90;;;;;;2589265;52;21224;-62
2021/04/23 00:39:21;;;;;;;2.28;1.00;;;7.10;39.90;;;;;;2342838;53;21402;-63
2021/04/23 00:41:47;;;;;;;5.12;1.02;;;7.10;40.00;;;;;;2443157;53;21059;-63
2021/04/23 00:44:14;;;;;;;2.78;1.10;;;7.10;40.10;;;;;;2344463;53;20985;-64
2021/04/23 00:46:40;;;;;;;6.05;1.30;;;7.10;40.30;;;;;;2589226;53;20972;-63
2021/04/23 00:49:07;;;;;;;5.95;1.50;;;7.00;40.40;;;;;;2405583;53;21815;-62
2021/04/23 00:51:38;;;;;;;5.18;1.20;;;7.00;40.50;;;;;;2341559;53;20945;-62
2021/04/23 00:54:04;;;;;;;6.57;1.17;;;7.00;40.40;;;;;;2343301;53;20941;-64
2021/04/23 00:56:32;;;;;;;3.00;1.10;;;7.00;40.40;;;;;;2343065;53;20968;-64
2021/04/23 00:58:58;;;;;;;3.72;1.08;;;6.90;40.40;;;;;;2347193;53;21439;-63
2021/04/23 01:01:28;;;;;;;2.08;0.93;;;7.00;40.50;;;;;;2342911;54;20936;-62
2021/04/23 01:03:55;;;;;;;4.32;1.30;;;6.90;40.50;;;;;;2343308;53;20944;-63
2021/04/23 01:06:27;;;;;;;3.50;1.20;;;6.90;40.40;;;;;;2343568;53;20951;-63
2021/04/23 01:08:53;;;;;;;2.90;0.90;;;6.90;40.50;;;;;;2343693;53;20944;-62
2021/04/23 01:11:20;;;;;;;4.70;1.25;;;6.80;40.40;;;;;;2346727;53;20932;-62
2021/04/23 01:13:47;;;;;;;4.93;1.08;;;6.80;40.40;;;;;;2342858;53;20933;-63
2021/04/23 01:16:18;;;;;;;4.85;1.17;;;6.80;40.50;;;;;;2343591;53;21425;-63
2021/04/23 01:18:44;;;;;;;3.83;1.30;;;6.70;40.60;;;;;;2346894;53;21024;-63
2021/04/23 01:21:12;;;;;;;2.37;0.82;;;6.70;40.60;;;;;;2327686;54;20932;-62
2021/04/23 01:23:40;;;;;;;2.62;1.10;;;6.60;40.60;;;;;;2331014;53;20934;-63
2021/04/23 01:26:07;;;;;;;4.00;1.17;;;6.60;40.70;;;;;;2347014;53;20977;-62
2021/04/23 01:28:37;;;;;;;4.10;1.17;;;6.50;40.70;;;;;;2339407;53;20970;-62
2021/04/23 01:31:04;;;;;;;2.97;1.30;;;6.50;40.90;;;;;;2343383;53;20920;-63
2021/04/23 01:33:31;;;;;;;3.95;1.00;;;6.50;40.90;;;;;;2343335;53;20940;-62
2021/04/23 01:35:57;;;;;;;2.92;1.10;;;6.40;40.80;;;;;;2347847;53;20936;-63
2021/04/23 01:38:23;;;;;;;3.17;1.00;;;6.40;40.90;;;;;;2343089;53;20983;-62
2021/04/23 01:40:50;;;;;;;4.05;1.05;;;6.40;41.10;;;;;;2343380;53;20977;-63
2021/04/23 01:43:16;;;;;;;4.10;1.10;;;6.30;41.10;;;;;;2343704;53;21818;-62
2021/04/23 01:45:44;;;;;;;3.50;1.20;;;6.30;41.20;;;;;;2332462;54;20944;-63
2021/04/23 01:48:11;;;;;;;2.87;1.10;;;6.30;41.20;;;;;;2582584;53;20908;-64
2021/04/23 01:50:41;;;;;;;3.50;1.20;;;6.20;41.30;;;;;;2379425;53;21778;-62
2021/04/23 01:53:08;;;;;;;3.03;1.10;;;6.20;41.30;;;;;;2368076;53;21077;-64
2021/04/23 01:55:35;;;;;;;3.70;1.20;;;6.20;41.40;;;;;;2344896;53;21012;-62
2021/04/23 01:58:01;;;;;;;3.45;1.17;;;6.20;41.50;;;;;;2343426;53;20980;-63
2021/04/23 02:00:32;;;;;;;2.97;1.42;;;6.20;41.60;;;;;;2349410;53;20952;-62
2021/04/23 02:03:00;;;;;;;3.40;1.20;;;6.10;41.70;;;;;;2362658;53;21455;-62
2021/04/23 02:05:26;;;;;;;5.55;1.65;;;6.10;41.70;;;;;;2343262;53;21023;-64
2021/04/23 02:07:56;;;;;;;2.47;1.10;;;6.10;41.70;;;;;;2347098;53;20952;-63
2021/04/23 02:10:28;;;;;;;3.20;1.20;;;6.00;41.70;;;;;;2343145;53;20936;-63
2021/04/23 02:12:54;;;;;;;3.53;1.37;;;6.00;41.70;;;;;;2344230;53;20975;-63
2021/04/23 02:15:20;;;;;;;3.97;1.27;;;5.90;41.70;;;;;;2524881;53;21463;-62
2021/04/23 02:17:47;;;;;;;5.12;1.23;;;5.90;41.80;;;;;;2357599;53;20940;-63
2021/04/23 02:20:15;;;;;;;2.20;0.95;;;5.90;41.80;;;;;;2445017;53;20992;-64
2021/04/23 02:22:43;;;;;;;3.72;1.15;;;5.80;41.80;;;;;;2343967;53;20951;-62
2021/04/23 02:25:11;;;;;;;2.87;1.10;;;5.80;41.80;;;;;;2347175;53;20996;-64
2021/04/23 02:27:38;;;;;;;5.97;1.37;;;5.80;41.90;;;;;;2343250;53;20944;-63
2021/04/23 02:30:09;;;;;;;3.25;1.17;;;5.80;42.00;;;;;;2343618;53;20960;-63
2021/04/23 02:32:35;;;;;;;4.10;1.10;;;5.80;42.10;;;;;;2347875;53;20924;-62
2021/04/23 02:35:06;;;;;;;3.42;1.25;;;5.70;42.00;;;;;;2342545;53;20952;-63
2021/04/23 02:37:33;;;;;;;2.28;1.05;;;5.70;42.20;;;;;;2343584;53;21020;-62
2021/04/23 02:39:59;;;;;;;3.53;1.20;;;5.60;42.20;;;;;;2590408;53;20953;-63
2021/04/23 02:42:26;;;;;;;4.15;1.08;;;5.60;42.30;;;;;;2347209;53;21002;-62
2021/04/23 02:44:56;;;;;;;4.05;1.30;;;5.60;42.50;;;;;;2358461;53;20921;-63
2021/04/23 02:47:23;;;;;;;3.55;1.25;;;5.50;42.40;;;;;;2359203;53;20990;-62
2021/04/23 02:49:49;;;;;;;2.70;0.98;;;5.50;42.40;;;;;;2357098;53;21012;-63
2021/04/23 02:52:15;;;;;;;3.12;1.00;;;5.50;42.50;;;;;;2343602;53;21937;-62
2021/04/23 02:54:44;;;;;;;3.75;0.90;;;5.50;42.50;;;;;;2346396;53;21799;-64
2021/04/23 02:57:15;;;;;;;4.00;1.30;;;5.40;42.50;;;;;;2590281;53;20925;-63
2021/04/23 02:59:41;;;;;;;4.53;1.77;;;5.40;42.50;;;;;;2346971;53;21040;-62
2021/04/23 03:02:08;;;;;;;2.90;1.50;;;5.40;42.60;;;;;;2347263;53;21747;-62
2021/04/23 03:04:34;;;;;;;3.30;1.50;;;5.40;42.60;;;;;;2477258;52;21404;-63
2021/04/23 03:07:01;;;;;;;4.07;1.33;;;5.40;42.70;;;;;;2356594;53;20957;-63
2021/04/23 03:09:27;;;;;;;3.42;1.37;;;5.30;42.60;;;;;;2322433;53;20919;-63
2021/04/23 03:11:54;;;;;;;5.85;1.60;;;5.30;42.60;;;;;;2343889;53;21693;-63
2021/04/23 03:14:20;;;;;;;3.25;1.23;;;5.40;42.80;;;;;;2590385;53;20989;-62
2021/04/23 03:16:47;;;;;;;3.42;1.55;;;5.30;42.70;;;;;;2360627;53;20971;-62
2021/04/23 03:19:14;;;;;;;3.92;1.40;;;5.20;42.70;;;;;;2355057;53;20928;-63
2021/04/23 03:21:41;;;;;;;3.83;1.87;;;5.20;42.90;;;;;;2343132;53;20991;-63
2021/04/23 03:24:08;;;;;;;3.83;1.50;;;5.20;42.90;;;;;;2349875;53;20913;-62
2021/04/23 03:26:35;;;;;;;6.53;1.50;;;5.10;42.90;;;;;;2589579;52;20959;-63
2021/04/23 03:29:01;;;;;;;3.15;1.27;;;5.10;42.90;;;;;;2340152;53;20944;-62
2021/04/23 03:31:27;;;;;;;3.60;1.65;;;5.10;43.00;;;;;;2346875;53;20952;-63
2021/04/23 03:33:53;;;;;;;3.90;1.48;;;5.10;43.10;;;;;;2342704;53;20956;-63
2021/04/23 03:36:20;;;;;;;3.83;1.30;;;5.00;43.00;;;;;;2342936;53;20989;-63
2021/04/23 03:38:47;;;;;;;2.28;1.00;;;5.00;43.10;;;;;;2343213;53;20987;-64
2021/04/23 03:41:19;;;;;;;4.95;1.60;;;5.00;43.70;;;;;;2342886;53;21445;-62
2021/04/23 03:43:45;;;;;;;4.00;1.40;;;5.00;43.30;;;;;;2342851;53;20901;-62
2021/04/23 03:46:12;;;;;;;3.92;1.40;;;4.90;43.30;;;;;;2342707;53;20980;-64
2021/04/23 03:48:39;;;;;;;4.70;1.20;;;4.90;43.40;;;;;;2343057;53;20972;-63
2021/04/23 03:51:06;;;;;;;3.22;1.20;;;4.90;43.40;;;;;;2345159;53;20997;-62
2021/04/23 03:53:32;;;;;;;3.83;1.48;;;4.90;43.40;;;;;;2350470;53;21008;-62
2021/04/23 03:55:59;;;;;;;4.87;1.48;;;4.80;43.40;;;;;;2364470;53;20957;-63
2021/04/23 03:58:25;;;;;;;3.33;1.40;;;4.80;43.50;;;;;;2342783;53;20984;-63
2021/04/23 04:01:04;;;;;;;3.65;1.33;;;4.80;43.60;;;;;;2343156;53;20968;-63
2021/04/23 04:03:31;;;;;;;4.05;1.65;;;4.70;43.70;;;;;;2343268;53;21814;-62
2021/04/23 04:05:58;;;;;;;2.55;1.12;;;4.70;43.60;;;;;;2345651;53;20916;-62
2021/04/23 04:08:24;;;;;;;3.78;1.30;;;4.70;43.70;;;;;;2344315;54;20942;-63
2021/04/23 04:10:51;;;;;;;3.58;1.35;;;4.70;43.70;;;;;;2596196;52;21324;-65
2021/04/23 04:13:18;;;;;;;5.18;1.60;;;4.70;43.80;;;;;;2343559;53;20976;-63
2021/04/23 04:15:44;;;;;;;4.22;1.77;;;4.60;43.70;;;;;;2342840;53;20972;-63
2021/04/23 04:18:11;;;;;;;4.65;1.73;;;4.60;43.70;;;;;;2343095;53;20945;-64
2021/04/23 04:20:41;;;;;;;4.85;2.10;;;4.60;43.80;;;;;;2342972;53;20988;-62
2021/04/23 04:23:10;;;;;;;5.50;2.00;;;4.60;43.90;;;;;;2343252;53;20933;-63
2021/04/23 04:25:37;;;;;;;5.47;1.92;;;4.50;43.90;;;;;;2342136;53;21737;-62
2021/04/23 04:28:05;;;;;;;5.22;1.75;;;4.50;43.90;;;;;;2517677;53;20956;-62
2021/04/23 04:30:31;;;;;;;6.80;2.55;;;4.50;43.90;;;;;;2534368;53;20976;-64
2021/04/23 04:33:01;;;;;;;5.78;1.92;;;4.50;43.90;;;;;;2342391;53;20968;-62
2021/04/23 04:35:27;;;;;;;5.53;1.90;;;4.50;44.00;;;;;;2323919;54;20978;-62
2021/04/23 04:37:55;;;;;;;4.55;1.50;;;4.50;44.10;;;;;;2556225;52;21350;-62
2021/04/23 04:40:21;;;;;;;4.80;1.87;;;4.40;44.00;;;;;;2589482;52;21323;-63
2021/04/23 04:42:47;;;;;;;4.32;1.62;;;4.40;44.10;;;;;;2342520;53;21491;-63
2021/04/23 04:45:16;;;;;;;4.32;1.77;;;4.40;44.20;;;;;;2341682;53;21464;-63
2021/04/23 04:47:43;;;;;;;2.97;1.30;;;4.40;44.30;;;;;;2342563;53;20928;-62
2021/04/23 04:50:15;;;;;;;4.35;1.77;;;4.40;44.30;;;;;;2342707;53;20972;-63
2021/04/23 04:52:41;;;;;;;3.42;1.60;;;4.40;44.30;;;;;;2345640;53;20993;-63
2021/04/23 04:55:12;;;;;;;3.15;1.58;;;4.30;44.30;;;;;;2342391;53;21028;-63
2021/04/23 04:57:38;;;;;;;3.85;1.67;;;4.40;44.40;;;;;;2477354;53;21988;-62
2021/04/23 05:00:09;;;;;;;4.40;1.73;;;4.30;44.40;;;;;;2352206;53;20996;-62
2021/04/23 05:02:35;;;;;;;5.12;2.00;;;4.30;44.50;;;;;;2345519;53;20925;-63
2021/04/23 05:05:03;;;;;;;3.72;1.75;;;4.30;44.50;;;;;;2343014;53;20932;-63
2021/04/23 05:07:32;;;;;;;4.40;1.40;;;4.30;44.60;;;;;;2342784;53;20948;-63
2021/04/23 05:10:00;;;;;;;4.07;1.67;;;4.30;44.70;;;;;;2323753;54;20939;-63
2021/04/23 05:12:27;;;;;;;4.47;1.60;;;4.30;44.70;;;;;;2342784;53;21425;-63
2021/04/23 05:14:53;;;;;;;4.00;1.50;;;4.30;44.80;;;;;;2342161;53;21731;-63
2021/04/23 05:17:19;;;;;;;4.10;1.80;;;4.30;44.90;;;;;;2342181;53;20944;-62
2021/04/23 05:19:46;;;;;;;3.58;1.60;;;4.30;44.90;;;;;;2341848;53;20976;-62
2021/04/23 05:22:13;;;;;;;3.08;1.30;;;4.30;44.90;;;;;;2421286;53;21015;-63
2021/04/23 05:24:41;;;;;;;3.47;1.50;;;4.30;45.00;;;;;;2349892;53;20948;-63
2021/04/23 05:27:07;;;;;;;3.33;1.20;;;4.40;45.10;;;;;;2358776;53;20950;-62
2021/04/23 05:29:33;;;;;;;4.10;1.65;;;4.40;45.10;;;;;;2356432;53;21458;-63
2021/04/23 05:32:01;;;;;;;5.15;1.87;;;4.40;45.10;;;;;;2352016;53;20968;-62
2021/04/23 05:34:29;;;;;;;3.75;2.00;;;4.40;45.20;;;;;;2341116;53;20975;-63
2021/04/23 05:36:55;;;;;;;4.50;2.03;;;4.50;45.50;;;;;;2588921;52;20956;-62
2021/04/23 05:39:24;;;;;;;4.68;1.90;;;4.50;45.60;;;;;;2344854;53;20936;-62
2021/04/23 05:41:51;;;;;;;6.10;2.45;;;4.50;45.60;;;;;;2346153;53;20960;-63
2021/04/23 05:44:17;;;;;;;6.93;2.53;;;4.60;45.60;;;;;;2341678;53;21743;-63
2021/04/23 05:46:44;;;;;;;4.93;2.20;;;4.60;45.70;;;;;;2343115;53;20928;-63
2021/04/23 05:49:11;;;;;;;8.85;3.00;;;4.70;45.90;;;;;;2347482;53;21003;-63
2021/04/23 05:51:37;;;;;;;8.25;2.87;;;4.70;46.00;;;;;;2317866;54;20964;-63
2021/04/23 05:54:08;;;;;;;6.45;3.15;;;4.80;46.20;;;;;;2346394;53;20905;-63
2021/04/23 05:56:34;;;;;;;6.78;2.85;;;4.90;46.40;;;;;;2566964;52;20944;-63
2021/04/23 05:59:01;;;;;;;11.20;3.00;;;4.90;46.50;;;;;;2345838;53;20941;-63
2021/04/23 06:01:28;;;;;;;5.60;2.55;;;5.00;46.60;;;;;;2346087;53;20929;-62
2021/04/23 06:03:54;;;;;;;5.18;2.72;;;5.10;46.80;;;;;;2346344;53;21057;-62
2021/04/23 06:06:21;;;;;;;6.45;2.53;;;5.20;46.90;;;;;;2588912;53;21402;-63
2021/04/23 06:08:51;;;;;;;5.82;3.17;;;5.30;47.00;;;;;;2342582;53;21739;-63
2021/04/23 06:11:20;;;;;;;4.65;1.90;;;5.40;47.20;;;;;;2492394;53;20968;-62
2021/04/23 06:13:46;;;;;;;3.17;1.70;;;5.50;47.10;;;;;;2343753;53;20984;-62
2021/04/23 06:16:12;;;;;;;6.18;2.35;;;5.60;47.10;;;;;;2343372;53;21011;-65
2021/04/23 06:18:39;;;;;;;4.15;1.87;;;5.80;47.20;;;;;;2589363;53;20993;-63
2021/04/23 06:21:06;;;;;;;4.43;2.20;;;5.80;47.20;;;;;;2322382;53;20998;-63
2021/04/23 06:23:33;;;;;;;5.50;2.37;;;5.90;47.20;;;;;;2342263;53;20960;-63
2021/04/23 06:26:00;;;;;;;8.23;2.55;;;6.10;47.40;;;;;;2561602;53;20932;-64
2021/04/23 06:28:26;;;;;;;5.62;2.40;;;6.20;47.40;;;;;;2595297;52;20999;-62
2021/04/23 06:30:52;;;;;;;6.25;2.12;;;6.30;47.40;;;;;;2367267;53;20964;-63
2021/04/23 06:33:22;;;;;;;5.18;2.22;;;6.50;47.60;;;;;;2332818;54;21028;-63
2021/04/23 06:35:48;;;;;;;6.75;2.72;;;6.60;47.50;;;;;;2334737;53;20915;-64
2021/04/23 06:38:15;;;;;;;4.72;2.33;;;6.70;47.50;;;;;;2341152;53;21731;-64
2021/04/23 06:40:41;;;;;;;5.43;2.30;;;6.80;47.50;;;;;;2542774;53;20956;-63
2021/04/23 06:43:07;;;;;;;6.40;2.22;;;6.90;47.50;;;;;;2350288;53;20948;-63
2021/04/23 06:45:33;;;;;;;5.32;2.10;;;7.10;47.70;;;;;;2336948;53;21080;-62
2021/04/23 06:48:00;;;;;;;6.15;2.17;;;7.20;47.80;;;;;;2483767;53;21007;-63
2021/04/23 06:50:26;;;;;;;5.75;2.00;;;7.30;47.90;;;;;;2342832;53;20952;-64
2021/04/23 06:52:55;;;;;;;4.30;2.08;;;7.50;48.10;;;;;;2456441;53;20932;-64
2021/04/23 06:55:22;;;;;;;6.18;2.50;;;7.60;48.80;;;;;;2343090;53;21007;-64
2021/04/23 06:57:48;;;;;;;7.97;1.90;;;7.90;50.30;;;;;;2343537;53;20932;-64
2021/04/23 07:00:20;;;;;;;4.62;2.25;;;8.30;51.60;;;;;;2470423;53;21075;-63
2021/04/23 07:02:49;;;;;;;6.32;1.95;;;8.90;52.90;;;;;;2342792;53;20870;-64
2021/04/23 07:05:16;;;;;;;6.65;2.72;;;9.50;53.80;;;;;;2344464;53;21003;-64
2021/04/23 07:07:43;;;;;;;5.80;2.72;;;10.20;53.40;;;;;;2589763;52;20984;-63
2021/04/23 07:10:12;;;;;;;4.90;2.65;;;10.90;53.80;;;;;;2341998;53;21040;-64
2021/04/23 07:12:42;;;;;;;5.28;2.35;;;11.70;54.20;;;;;;2589956;53;20920;-66
2021/04/23 07:15:11;;;;;;;5.18;2.20;;;12.40;54.20;;;;;;2342792;53;20984;-66
2021/04/23 07:17:43;;;;;;;4.78;2.12;;;13.10;53.90;;;;;;2346340;53;21032;-64
2021/04/23 07:20:39;;;;;;;5.72;2.20;;;13.90;53.40;;;;;;2342382;53;21710;-65
2021/04/23 07:23:09;;;;;;;5.75;2.50;;;14.60;53.00;;;;;;2343199;53;20927;-65
2021/04/23 07:25:35;;;;;;;4.93;2.03;;;15.10;52.20;;;;;;2342459;53;20920;-66
2021/04/23 07:28:05;;;;;;;4.35;2.05;;;15.60;52.00;;;;;;2355785;53;21457;-65
2021/04/23 07:30:32;;;;;;;4.45;2.20;;;16.10;51.70;;;;;;2554451;53;21000;-66
2021/04/23 07:32:58;;;;;;;6.37;2.62;;;16.60;51.30;;;;;;2343238;53;20956;-64
2021/04/23 07:35:25;;;;;;;4.32;2.30;;;17.10;50.80;;;;;;2348314;52;20947;-64
2021/04/23 07:37:51;;;;;;;4.35;2.08;;;17.50;50.10;;;;;;2366481;53;21015;-64
2021/04/23 07:40:18;;;;;;;4.18;2.20;;;17.90;49.80;;;;;;2348685;53;20944;-65
2021/04/23 07:42:46;;;;;;;4.43;1.87;;;18.30;49.40;;;;;;2346269;53;21017;-66
2021/04/23 07:45:13;;;;;;;5.15;2.17;;;18.70;48.80;;;;;;2342095;53;20940;-65
2021/04/23 07:47:39;;;;;;;5.93;2.15;;;19.00;47.60;;;;;;2346250;53;20988;-65
2021/04/23 07:50:07;;;;;;;4.75;2.08;;;19.10;46.20;;;;;;2341953;53;20996;-65
2021/04/23 07:52:33;;;;;;;4.40;2.45;;;19.20;44.80;;;;;;2342984;53;20948;-65
2021/04/23 07:55:02;;;;;;;5.82;2.20;;;19.10;43.70;;;;;;2323052;54;21005;-64
2021/04/23 07:57:29;;;;;;;6.03;2.30;;;19.10;42.90;;;;;;2342791;53;20948;-65
2021/04/23 07:59:55;;;;;;;4.60;1.90;;;18.90;42.20;;;;;;2589017;52;21066;-65
2021/04/23 08:02:21;;;;;;;3.55;1.62;;;18.70;41.60;;;;;;2345765;53;20988;-64
2021/04/23 08:04:48;;;;;;;6.97;2.40;;;18.50;41.20;;;;;;2342587;53;20921;-66
2021/04/23 08:07:14;;;;;;;4.40;2.20;;;18.40;41.00;;;;;;2346848;53;20956;-65
2021/04/23 08:09:40;;;;;;;5.05;1.83;;;18.20;41.00;;;;;;2341860;53;21035;-65
2021/04/23 08:12:08;;;;;;;4.18;1.95;;;18.00;40.80;;;;;;2343178;53;20976;-66
2021/04/23 08:14:34;;;;;;;4.50;2.00;;;17.90;41.10;;;;;;2587822;53;20964;-66
2021/04/23 08:17:01;;;;;;;5.68;2.00;;;17.80;41.50;;;;;;2342354;53;20996;-65
2021/04/23 08:19:32;;;;;;;7.85;2.17;;;17.80;41.70;;;;;;2346399;53;20956;-65
2021/04/23 08:21:59;;;;;;;5.20;2.03;;;18.00;42.50;;;;;;2336175;53;20926;-65
2021/04/23 08:24:25;;;;;;;6.60;2.00;;;18.10;43.20;;;;;;2356237;53;21827;-65
2021/04/23 08:26:53;;;;;;;5.05;2.22;;;18.30;44.10;;;;;;2342693;53;21239;-65
2021/04/23 08:29:19;;;;;;;4.00;1.77;;;18.60;44.60;;;;;;2348760;53;20945;-65
2021/04/23 08:31:45;;;;;;;5.85;2.05;;;18.90;45.30;;;;;;2359135;53;20998;-67
2021/04/23 08:34:12;;;;;;;5.12;2.05;;;19.20;44.80;;;;;;2327539;53;21035;-66
2021/04/23 08:36:38;;;;;;;4.85;2.15;;;19.50;44.30;;;;;;2343394;53;21729;-67
2021/04/23 08:39:09;;;;;;;4.70;2.30;;;19.70;43.90;;;;;;2342831;53;21377;-66
2021/04/23 08:41:35;;;;;;;4.25;2.00;;;20.00;43.20;;;;;;2343780;53;21084;-65
2021/04/23 08:44:03;;;;;;;5.80;2.35;;;20.10;43.20;;;;;;2342923;53;21035;-65
2021/04/23 08:46:30;;;;;;;5.55;2.00;;;20.20;42.80;;;;;;2346106;54;20901;-65
2021/04/23 08:48:56;;;;;;;5.25;2.30;;;20.40;42.60;;;;;;2342478;53;21029;-65
2021/04/23 08:51:22;;;;;;;4.60;1.95;;;20.40;42.20;;;;;;2361395;53;20932;-65
2021/04/23 08:53:52;;;;;;;4.65;2.03;;;20.50;41.80;;;;;;2343383;53;20931;-66
2021/04/23 08:56:18;;;;;;;4.32;1.98;;;20.60;41.20;;;;;;2343740;53;20956;-66
2021/04/23 08:58:48;;;;;;;5.25;2.03;;;20.60;41.20;;;;;;2343152;53;20965;-65
2021/04/23 09:01:15;;;;;;;5.55;1.87;;;20.70;41.20;;;;;;2346631;53;20941;-66
2021/04/23 09:03:41;;;;;;;6.22;1.98;;;20.80;41.20;;;;;;2330216;53;21381;-66
2021/04/23 09:06:18;;;;;;;6.55;2.47;;;20.90;41.10;;;;;;2342992;53;21540;-65
2021/04/23 09:08:59;;;;;;;6.05;2.10;;;21.00;40.70;;;;;;2343705;53;20998;-66
2021/04/23 09:11:49;;;;;;;4.95;2.00;;;21.10;39.60;;;;;;2366478;53;21244;-66
2021/04/23 09:14:19;;;;;;;6.55;1.90;;;21.20;40.00;;;;;;2337123;53;21044;-68
2021/04/23 09:16:59;;;;;;;5.80;1.85;;;21.30;40.80;;;;;;2343604;53;21024;-67
2021/04/23 09:19:26;;;;;;;3.87;1.92;;;21.50;40.80;;;;;;2343577;53;21853;-66
2021/04/23 09:21:59;;;;;;;4.50;2.03;;;21.60;41.00;;;;;;2588389;53;20964;-68
2021/04/23 09:24:39;;;;;;;5.45;2.10;;;21.80;40.60;;;;;;2331641;53;20944;-68
2021/04/23 09:27:20;;;;;;;7.05;2.30;;;22.00;39.50;;;;;;2401079;53;20976;-65
2021/04/23 09:29:52;;;;;;;7.35;1.90;;;22.10;38.30;;;;;;2343409;53;20987;-67
2021/04/23 09:32:37;;;;;;;5.25;2.03;;;22.10;38.50;;;;;;2343614;53;20944;-66
2021/04/23 09:35:18;;;;;;;4.72;1.73;;;22.00;37.50;;;;;;2346189;53;20997;-66
2021/04/23 09:37:46;;;;;;;3.90;1.52;;;21.90;37.10;;;;;;2323501;54;20956;-67
2021/04/23 09:40:18;;;;;;;5.90;1.60;;;21.80;37.70;;;;;;2346294;53;20964;-67
2021/04/23 09:42:52;;;;;;;5.10;1.75;;;21.70;37.40;;;;;;2324374;54;20992;-66
2021/04/23 09:45:20;;;;;;;4.37;1.80;;;21.70;37.30;;;;;;2347411;53;20965;-67
2021/04/23 09:47:46;;;;;;;7.97;2.80;;;21.80;37.40;;;;;;2342194;53;20932;-67
2021/04/23 09:50:14;;;;;;;5.75;2.62;;;21.80;37.40;;;;;;2346578;53;20954;-67
2021/04/23 09:52:53;;;;;;;5.20;1.83;;;21.80;37.10;;;;;;2574753;53;20948;-67
2021/04/23 09:55:22;;;;;;;7.70;1.70;;;21.80;36.40;;;;;;2313806;53;1794603;-68
2021/04/23 09:57:59;;;;;;;6.28;1.50;;;21.80;36.90;;;;;;2343089;53;20920;-66
2021/04/23 10:00:28;;;;;;;4.72;1.48;;;21.90;36.90;;;;;;2343526;53;21003;-68
2021/04/23 10:02:57;;;;;;;5.93;1.73;;;21.90;36.70;;;;;;2492459;52;20973;-67
2021/04/23 10:05:40;;;;;;;5.50;1.50;;;21.90;37.00;;;;;;2329416;53;20918;-67
2021/04/23 10:08:22;;;;;;;4.53;1.98;;;21.90;36.50;;;;;;2361642;53;20943;-67
2021/04/23 10:10:54;;;;;;;7.20;1.90;;;21.90;37.10;;;;;;2333619;53;21562;-66
2021/04/23 10:13:33;;;;;;;4.40;1.50;;;22.00;37.20;;;;;;2342790;53;21016;-68
2021/04/23 10:15:59;;;;;;;5.30;1.67;;;22.10;36.50;;;;;;2590190;53;20944;-67
2021/04/23 10:18:28;;;;;;;6.00;1.90;;;22.30;37.40;;;;;;2343109;53;21024;-66
2021/04/23 10:20:56;;;;;;;5.28;1.60;;;22.40;36.40;;;;;;2343716;53;20932;-65
2021/04/23 10:23:23;;;;;;;7.57;1.60;;;22.50;36.60;;;;;;2589555;52;21390;-65
2021/04/23 10:25:52;;;;;;;5.87;1.80;;;22.50;36.70;;;;;;2345931;53;21855;-66
2021/04/23 10:28:19;;;;;;;5.93;1.73;;;22.60;36.60;;;;;;2343111;53;20928;-65
2021/04/23 10:30:48;;;;;;;3.90;1.80;;;22.70;36.60;;;;;;2347115;53;20932;-68
2021/04/23 10:33:16;;;;;;;4.57;1.50;;;22.80;36.60;;;;;;2324121;53;20958;-66
2021/04/23 10:35:46;;;;;;;5.72;1.70;;;22.80;36.50;;;;;;2589917;53;20905;-67
2021/04/23 10:38:19;;;;;;;6.45;1.73;;;22.90;36.30;;;;;;2343507;53;20989;-66
2021/04/23 10:40:57;;;;;;;6.97;1.55;;;23.00;36.20;;;;;;2343893;53;21064;-68
2021/04/23 10:43:25;;;;;;;6.07;1.50;;;23.20;36.60;;;;;;2342747;53;20956;-68
2021/04/23 10:46:08;;;;;;;3.80;1.62;;;23.40;37.70;;;;;;2342736;53;21540;-66
2021/04/23 10:48:37;;;;;;;4.55;1.90;;;23.60;37.00;;;;;;2343020;53;20916;-66
2021/04/23 10:51:22;;;;;;;5.80;1.80;;;23.90;37.40;;;;;;2589120;53;21011;-66
2021/04/23 10:53:51;;;;;;;5.00;1.60;;;24.20;36.70;;;;;;2342632;53;20991;-66
2021/04/23 10:56:29;;;;;;;5.00;1.60;;;24.40;36.80;;;;;;2346015;53;21383;-66
2021/04/23 10:58:57;;;;;;;5.40;1.62;;;24.50;36.10;;;;;;2343457;53;20941;-67
2021/04/23 11:01:27;;;;;;;4.90;1.77;;;24.60;35.70;;;;;;2347218;53;21821;-67
2021/04/23 11:04:10;;;;;;;7.10;1.65;;;24.70;35.30;;;;;;2353452;53;21026;-66
2021/04/23 11:06:38;;;;;;;4.05;1.42;;;24.80;33.90;;;;;;2341456;53;20987;-65
2021/04/23 11:13:21;;;;;;;6.20;1.70;;;24.80;33.90;;;;;;2344363;53;20980;-66
2021/04/23 11:16:26;;;;;;;4.37;1.52;;;24.80;33.70;;;;;;2346423;53;20996;-66
2021/04/23 11:20:32;;;;;;;5.60;1.98;;;24.70;33.20;;;;;;2343467;53;21016;-68
2021/04/23 11:22:59;;;;;;;5.12;1.45;;;24.70;33.30;;;;;;2344040;53;21372;-66
2021/04/23 11:25:26;;;;;;;4.43;1.65;;;24.70;34.50;;;;;;2529397;53;21735;-67
2021/04/23 11:28:06;;;;;;;5.25;1.50;;;24.70;34.20;;;;;;2343422;53;20908;-66
2021/04/23 11:31:00;;;;;;;4.78;1.75;;;24.80;33.40;;;;;;2343172;53;20944;-70
2021/04/23 11:40:24;;;;;;;6.12;1.75;;;24.90;32.50;;;;;;2343268;53;21031;-67
2021/04/23 11:42:57;;;;;;;6.37;1.70;;;24.70;33.90;;;;;;2348806;53;21016;-66
2021/04/23 11:45:25;;;;;;;7.12;1.75;;;24.60;33.40;;;;;;2333695;53;20989;-65
2021/04/23 11:47:58;;;;;;;3.40;1.60;;;24.60;32.80;;;;;;2358410;53;20947;-67
2021/04/23 11:50:40;;;;;;;4.47;1.80;;;24.50;32.20;;;;;;2347412;53;21814;-68
2021/04/23 11:53:08;;;;;;;6.78;1.92;;;24.40;32.50;;;;;;2343163;53;21011;-66
2021/04/23 11:55:36;;;;;;;6.55;1.75;;;24.40;32.50;;;;;;2342521;53;20992;-67
2021/04/23 11:58:12;;;;;;;5.22;2.10;;;24.40;32.40;;;;;;2342809;53;20932;-67
2021/04/23 12:00:46;;;;;;;6.55;2.78;;;24.40;32.10;;;;;;2589997;53;20944;-68
2021/04/23 12:03:16;;;;;;;6.43;1.92;;;24.40;31.70;;;;;;2343388;53;21421;-66
2021/04/23 12:05:45;;;;;;;5.95;2.55;;;24.30;31.90;;;;;;2343162;53;20908;-66
2021/04/23 12:08:13;;;;;;;5.70;1.95;;;24.40;32.30;;;;;;2347393;53;21076;-68
2021/04/23 12:10:44;;;;;;;6.43;2.12;;;24.40;32.50;;;;;;2360332;53;20955;-67
2021/04/23 12:13:12;;;;;;;5.95;2.35;;;24.40;32.60;;;;;;2334366;53;21464;-68
2021/04/23 12:15:42;;;;;;;7.32;2.50;;;24.40;32.50;;;;;;2352667;53;20997;-67
2021/04/23 12:18:10;;;;;;;6.07;2.20;;;24.40;32.30;;;;;;2342707;53;20992;-67
2021/04/23 12:20:50;;;;;;;6.72;2.10;;;24.50;32.50;;;;;;2353525;53;20926;-69
2021/04/23 12:23:24;;;;;;;7.95;2.08;;;24.60;32.00;;;;;;2362990;53;20920;-68
2021/04/23 12:25:52;;;;;;;4.90;2.12;;;24.70;32.10;;;;;;2323933;54;20984;-68
2021/04/23 12:28:37;;;;;;;5.18;2.25;;;24.80;32.60;;;;;;2560364;53;21012;-68
2021/04/23 12:31:39;;;;;;;6.28;2.60;;;24.90;32.00;;;;;;2590296;53;21765;-69
2021/04/23 12:34:14;;;;;;;7.90;2.47;;;25.10;31.70;;;;;;2343717;53;20996;-68
2021/04/23 12:36:44;;;;;;;7.20;2.22;;;25.10;31.90;;;;;;2342882;53;20944;-67
2021/04/23 12:39:19;;;;;;;5.70;2.15;;;25.10;31.80;;;;;;2347757;53;21024;-66
2021/04/23 12:42:06;;;;;;;5.20;2.22;;;25.10;31.40;;;;;;2368982;53;20982;-68
2021/04/23 12:44:34;;;;;;;6.25;2.50;;;25.10;30.60;;;;;;2347815;53;20944;-69
2021/04/23 12:47:04;;;;;;;5.40;2.20;;;25.10;31.10;;;;;;2588445;53;21044;-68
2021/04/23 12:49:38;;;;;;;5.37;2.37;;;25.10;30.80;;;;;;2346741;53;21023;-68
2021/04/23 12:52:23;;;;;;;5.03;2.15;;;25.00;30.90;;;;;;2588972;52;21764;-69
2021/04/23 12:54:50;;;;;;;6.50;2.33;;;25.00;31.10;;;;;;2324049;54;20964;-69
2021/04/23 12:57:22;;;;;;;6.65;2.78;;;25.00;31.00;;;;;;2590030;53;21792;-67
2021/04/23 13:00:15;;;;;;;6.22;2.62;;;25.00;30.40;;;;;;2337787;53;21836;-66
2021/04/23 13:02:43;;;;;;;6.50;2.28;;;25.00;30.30;;;;;;2342263;53;20917;-68
2021/04/23 13:05:19;;;;;;;6.82;2.83;;;24.90;30.40;;;;;;2342783;53;21087;-67
2021/04/23 13:07:52;;;;;;;7.78;2.78;;;24.80;30.00;;;;;;2590178;53;21849;-68
2021/04/23 13:10:44;;;;;;;7.95;3.05;;;24.80;30.10;;;;;;2343822;53;20996;-69
2021/04/23 13:13:16;;;;;;;6.72;2.70;;;24.60;29.50;;;;;;2390187;53;21712;-66
2021/04/23 13:15:51;;;;;;;6.37;2.22;;;24.50;29.90;;;;;;2343772;53;20928;-68